Time;durP1;ratioP1;P1;durP2;ratioP2;P2;SDS_P1;SDS_P2;PMS_P1;PMS_P2;Temp;Humidity;BMP_temperature;BMP_pressure;BME280_temperature;BME280_humidity;BME280_pressure;Samples;Min_cycle;Max_cycle;Signal;HPM_P1;HPM_P2
2023/10/24 00:01:18;;;;;;;60.58;45.65;;;10.50;99.90;;;;;;4878256;29;20628;-81
2023/10/24 00:03:44;;;;;;;65.40;48.05;;;10.50;99.90;;;;;;4884831;29;20119;-81
2023/10/24 00:06:09;;;;;;;64.47;47.28;;;10.50;99.90;;;;;;4886931;29;20040;-81
2023/10/24 00:08:35;;;;;;;56.90;43.45;;;10.50;99.90;;;;;;4882787;29;20075;-81
2023/10/24 00:11:05;;;;;;;56.00;44.15;;;10.50;99.90;;;;;;4896500;29;20036;-80
2023/10/24 00:13:30;;;;;;;59.45;46.70;;;10.60;99.90;;;;;;4893565;29;20100;-81
2023/10/24 00:15:59;;;;;;;60.10;46.70;;;10.60;99.90;;;;;;4895866;29;20040;-81
2023/10/24 00:18:26;;;;;;;60.72;47.22;;;10.60;99.90;;;;;;4901405;29;20067;-81
2023/10/24 00:20:52;;;;;;;70.85;51.28;;;10.60;99.90;;;;;;4878139;29;20049;-81
2023/10/24 00:23:18;;;;;;;62.05;46.97;;;10.60;99.90;;;;;;4865844;29;20036;-80
2023/10/24 00:25:44;;;;;;;51.50;39.95;;;10.60;99.90;;;;;;4870992;29;20056;-81
2023/10/24 00:28:10;;;;;;;59.45;45.42;;;10.60;99.90;;;;;;4886571;29;20040;-81
2023/10/24 00:30:36;;;;;;;57.05;45.00;;;10.50;99.90;;;;;;4865504;29;20048;-80
2023/10/24 00:33:02;;;;;;;69.53;48.25;;;10.60;99.90;;;;;;4886491;29;20122;-80
2023/10/24 00:35:28;;;;;;;54.58;43.72;;;10.60;99.90;;;;;;4880058;29;20128;-80
2023/10/24 00:37:53;;;;;;;54.67;43.97;;;10.60;99.90;;;;;;4882394;29;20127;-80
2023/10/24 00:40:19;;;;;;;54.58;43.85;;;10.60;99.90;;;;;;4866298;29;20032;-80
2023/10/24 00:42:45;;;;;;;48.83;40.20;;;10.70;99.90;;;;;;4892574;29;20475;-80
2023/10/24 00:45:10;;;;;;;61.80;45.38;;;10.70;99.90;;;;;;4896008;29;20064;-80
2023/10/24 00:47:38;;;;;;;44.50;38.22;;;10.70;99.90;;;;;;4897386;29;20076;-80
2023/10/24 00:50:05;;;;;;;47.80;40.70;;;10.70;99.90;;;;;;4881626;29;20068;-80
2023/10/24 00:52:31;;;;;;;47.05;40.83;;;10.70;99.90;;;;;;4891636;29;20472;-80
2023/10/24 00:54:57;;;;;;;53.47;43.50;;;10.80;99.90;;;;;;4900372;29;20041;-80
2023/10/24 00:57:24;;;;;;;51.08;43.47;;;10.80;99.90;;;;;;4887957;29;20041;-80
2023/10/24 00:59:50;;;;;;;45.20;40.30;;;10.80;99.90;;;;;;4881512;29;20081;-80
2023/10/24 01:02:17;;;;;;;50.72;43.22;;;10.80;99.90;;;;;;4881946;29;20526;-80
2023/10/24 01:04:43;;;;;;;49.75;41.00;;;10.80;99.90;;;;;;4881824;29;20436;-80
2023/10/24 01:07:08;;;;;;;56.92;43.70;;;10.90;99.90;;;;;;4896097;29;20048;-80
2023/10/24 01:09:34;;;;;;;51.88;43.38;;;10.80;99.90;;;;;;4896446;29;20130;-80
2023/10/24 01:12:00;;;;;;;53.42;42.72;;;10.80;99.90;;;;;;4890090;29;20036;-80
2023/10/24 01:14:25;;;;;;;61.97;46.78;;;10.80;99.90;;;;;;4881324;29;20044;-80
2023/10/24 01:16:51;;;;;;;59.53;45.60;;;10.80;99.90;;;;;;4896014;29;20118;-80
2023/10/24 01:19:17;;;;;;;53.30;44.45;;;10.80;99.90;;;;;;4897839;29;20432;-80
2023/10/24 01:21:45;;;;;;;51.45;43.53;;;10.80;99.90;;;;;;4873688;29;20052;-80
2023/10/24 01:24:13;;;;;;;58.10;48.72;;;10.80;99.90;;;;;;4865691;29;20045;-81
2023/10/24 01:26:41;;;;;;;60.53;50.47;;;10.80;99.90;;;;;;4881578;29;20054;-80
2023/10/24 01:29:07;;;;;;;62.22;49.83;;;10.80;99.90;;;;;;4881040;29;20551;-80
2023/10/24 01:31:33;;;;;;;54.15;46.70;;;10.80;99.90;;;;;;4896707;29;20151;-80
2023/10/24 01:33:58;;;;;;;54.85;46.30;;;10.80;99.90;;;;;;4896637;29;20095;-80
2023/10/24 01:36:24;;;;;;;53.00;46.55;;;10.80;99.90;;;;;;4891420;29;20506;-80
2023/10/24 01:38:49;;;;;;;56.28;48.30;;;10.90;99.90;;;;;;4874134;29;20395;-80
2023/10/24 01:41:15;;;;;;;58.58;49.30;;;10.80;99.90;;;;;;4873108;29;20418;-80
2023/10/24 01:43:40;;;;;;;54.30;47.13;;;10.80;99.90;;;;;;4880471;29;20052;-80
2023/10/24 01:46:06;;;;;;;52.17;45.75;;;10.90;99.90;;;;;;4895099;29;20056;-80
2023/10/24 01:48:31;;;;;;;55.33;49.20;;;10.90;99.90;;;;;;4895278;29;20407;-80
2023/10/24 01:50:57;;;;;;;58.72;48.40;;;10.90;99.90;;;;;;4874788;29;20111;-80
2023/10/24 01:53:23;;;;;;;67.70;50.75;;;10.90;99.90;;;;;;4899369;29;20487;-81
2023/10/24 01:55:48;;;;;;;61.13;49.88;;;10.90;99.90;;;;;;4899367;29;20122;-80
2023/10/24 01:58:14;;;;;;;78.72;55.17;;;10.90;99.90;;;;;;4891117;29;20132;-80
2023/10/24 02:00:39;;;;;;;94.20;58.13;;;10.90;99.90;;;;;;4890464;29;20040;-80
2023/10/24 02:03:05;;;;;;;107.47;62.00;;;10.90;99.90;;;;;;4887544;29;20096;-80
2023/10/24 02:05:30;;;;;;;89.63;59.35;;;10.90;99.90;;;;;;4896064;29;20050;-80
2023/10/24 02:07:56;;;;;;;74.97;56.95;;;10.90;99.90;;;;;;4897166;29;20036;-80
2023/10/24 02:10:22;;;;;;;79.25;56.88;;;10.90;99.90;;;;;;4899195;29;20076;-80
2023/10/24 02:12:47;;;;;;;284.38;83.80;;;10.90;99.90;;;;;;4889691;29;20429;-80
2023/10/24 02:15:13;;;;;;;195.15;71.40;;;10.80;99.90;;;;;;4887381;29;20566;-80
2023/10/24 02:17:41;;;;;;;120.35;64.47;;;10.80;99.90;;;;;;4882929;29;20048;-80
2023/10/24 02:20:08;;;;;;;75.00;53.42;;;10.80;99.90;;;;;;4878567;29;20206;-81
2023/10/24 02:22:33;;;;;;;63.75;49.22;;;10.90;99.90;;;;;;4874273;29;20471;-80
2023/10/24 02:24:59;;;;;;;66.45;49.60;;;11.00;99.90;;;;;;4883324;29;20044;-80
2023/10/24 02:27:24;;;;;;;105.97;54.72;;;10.90;99.90;;;;;;4877475;29;20068;-80
2023/10/24 02:29:50;;;;;;;63.60;47.78;;;10.90;99.90;;;;;;4894762;29;20494;-80
2023/10/24 02:32:16;;;;;;;95.90;52.63;;;11.00;99.90;;;;;;4880118;29;20048;-80
2023/10/24 02:34:41;;;;;;;88.95;51.50;;;10.90;99.90;;;;;;4879994;29;20044;-80
2023/10/24 02:37:07;;;;;;;122.05;57.00;;;10.90;99.90;;;;;;4884057;29;20514;-80
2023/10/24 02:39:32;;;;;;;199.05;67.50;;;10.90;99.90;;;;;;4878484;29;20045;-80
2023/10/24 02:41:58;;;;;;;128.73;58.13;;;10.90;99.90;;;;;;4864366;29;20040;-80
2023/10/24 02:44:25;;;;;;;67.32;47.28;;;10.90;99.90;;;;;;4864521;29;20040;-80
2023/10/24 02:46:50;;;;;;;127.72;55.53;;;10.90;99.90;;;;;;4891071;29;20050;-80
2023/10/24 02:49:16;;;;;;;67.78;46.63;;;10.90;99.90;;;;;;4898883;29;20109;-80
2023/10/24 02:51:42;;;;;;;92.50;50.78;;;11.00;99.90;;;;;;4872684;29;20091;-80
2023/10/24 02:54:07;;;;;;;69.85;47.53;;;11.00;99.90;;;;;;4879833;29;20047;-80
2023/10/24 02:56:33;;;;;;;64.50;46.38;;;11.00;99.90;;;;;;4896123;29;20036;-81
2023/10/24 02:58:58;;;;;;;93.30;53.20;;;11.10;99.90;;;;;;4898429;29;20047;-80
2023/10/24 03:01:24;;;;;;;88.10;52.47;;;11.10;99.90;;;;;;4898530;29;20091;-80
2023/10/24 03:03:50;;;;;;;87.35;51.75;;;11.00;99.90;;;;;;4875267;29;20051;-80
2023/10/24 03:06:17;;;;;;;74.20;51.97;;;11.10;99.90;;;;;;4877218;29;20067;-80
2023/10/24 03:08:43;;;;;;;73.35;50.13;;;11.10;99.90;;;;;;4882869;29;20055;-80
2023/10/24 03:11:08;;;;;;;112.57;55.67;;;11.10;99.90;;;;;;4898292;29;20044;-80
2023/10/24 03:40:21;;;;;;;;;;;;;;;;;;;;;
2023/10/24 04:30:44;;;;;;;92.65;54.72;;;11.20;99.90;;;;;;5262423;23;20095;-80
2023/10/24 04:33:10;;;;;;;47.45;42.42;;;11.20;99.90;;;;;;4942067;29;20046;-80
2023/10/24 04:35:43;;;;;;;82.22;53.20;;;11.20;99.90;;;;;;4930965;29;20488;-81
2023/10/24 04:38:10;;;;;;;72.55;51.83;;;11.20;99.90;;;;;;4948324;28;20422;-82
2023/10/24 04:40:38;;;;;;;44.45;39.60;;;11.20;99.90;;;;;;4916646;29;20051;-80
2023/10/24 04:43:04;;;;;;;84.68;49.67;;;11.10;99.90;;;;;;4912028;29;20040;-80
2023/10/24 04:45:31;;;;;;;60.53;42.92;;;11.10;99.90;;;;;;4900637;29;20569;-80
2023/10/24 04:48:00;;;;;;;62.63;41.78;;;11.20;99.90;;;;;;4916379;29;20609;-81
2023/10/24 04:50:26;;;;;;;62.60;41.83;;;11.10;99.90;;;;;;4909384;29;20041;-80
2023/10/24 04:52:52;;;;;;;86.18;48.55;;;11.10;99.90;;;;;;4919730;29;20589;-80
2023/10/24 04:55:18;;;;;;;52.35;41.60;;;11.10;99.90;;;;;;4928190;29;20071;-80
2023/10/24 04:57:44;;;;;;;40.67;35.92;;;11.10;99.90;;;;;;4915988;29;20039;-80
2023/10/24 05:00:11;;;;;;;53.42;38.88;;;11.10;99.90;;;;;;4916113;29;20064;-80
2023/10/24 05:02:41;;;;;;;59.13;42.55;;;11.10;99.90;;;;;;4910789;29;20150;-80
2023/10/24 05:05:07;;;;;;;56.75;39.45;;;11.10;99.90;;;;;;4905572;29;20063;-80
2023/10/24 05:07:34;;;;;;;59.00;37.78;;;11.10;99.90;;;;;;4902096;29;20081;-80
2023/10/24 05:10:00;;;;;;;37.10;31.08;;;11.10;99.90;;;;;;4893169;29;20047;-81
2023/10/24 05:12:26;;;;;;;27.50;24.63;;;11.10;99.90;;;;;;4914016;29;20044;-80
2023/10/24 05:14:51;;;;;;;40.30;30.05;;;11.10;99.90;;;;;;4915429;29;20088;-80
2023/10/24 05:17:17;;;;;;;67.32;38.25;;;11.10;99.90;;;;;;4907852;29;20099;-80
2023/10/24 05:19:42;;;;;;;30.92;27.80;;;11.00;99.90;;;;;;4934957;29;20038;-80
2023/10/24 05:22:10;;;;;;;36.63;30.77;;;11.00;99.90;;;;;;4926000;29;20528;-80
2023/10/24 05:24:37;;;;;;;32.40;27.90;;;11.00;99.90;;;;;;4900019;29;20040;-80
2023/10/24 05:27:06;;;;;;;34.80;28.50;;;11.00;99.90;;;;;;4900410;29;20051;-80
2023/10/24 05:29:33;;;;;;;63.17;35.60;;;11.00;99.90;;;;;;4917135;29;20056;-80
2023/10/24 05:31:58;;;;;;;87.63;38.33;;;11.00;99.90;;;;;;4909706;29;20152;-81
2023/10/24 05:34:28;;;;;;;32.38;27.02;;;10.90;99.90;;;;;;4934411;29;20155;-80
2023/10/24 05:36:54;;;;;;;47.30;32.00;;;10.90;99.90;;;;;;4931056;29;20040;-80
2023/10/24 05:39:20;;;;;;;35.85;29.35;;;10.90;99.90;;;;;;4898568;29;20520;-81
2023/10/24 05:41:49;;;;;;;63.00;36.00;;;10.90;99.90;;;;;;4899937;29;20036;-80
2023/10/24 05:44:15;;;;;;;30.73;27.48;;;10.90;99.90;;;;;;4907273;29;20473;-81
2023/10/24 05:46:40;;;;;;;62.90;34.35;;;10.90;99.90;;;;;;4905105;29;20126;-80
2023/10/24 05:49:06;;;;;;;37.83;31.52;;;10.90;99.90;;;;;;4899537;29;20521;-81
2023/10/24 05:51:32;;;;;;;33.35;28.75;;;10.90;99.90;;;;;;4917086;29;20384;-80
2023/10/24 05:53:58;;;;;;;41.45;30.20;;;10.90;99.90;;;;;;4926515;29;20405;-80
2023/10/24 05:56:24;;;;;;;40.47;29.17;;;10.90;99.90;;;;;;4907804;29;20036;-80
2023/10/24 05:58:49;;;;;;;30.58;26.05;;;10.80;99.90;;;;;;4903231;29;20074;-81
2023/10/24 06:01:15;;;;;;;80.55;37.97;;;10.80;99.90;;;;;;4919406;29;20071;-80
2023/10/24 06:03:40;;;;;;;31.55;28.10;;;10.80;99.90;;;;;;4925778;29;20050;-80
2023/10/24 06:06:07;;;;;;;51.53;32.85;;;10.90;99.90;;;;;;4934134;29;20083;-80
2023/10/24 06:08:32;;;;;;;35.35;28.70;;;10.80;99.90;;;;;;4907598;29;20530;-80
2023/10/24 06:11:00;;;;;;;156.10;50.38;;;10.80;99.90;;;;;;4906833;29;20063;-81
2023/10/24 06:13:25;;;;;;;31.90;28.40;;;10.80;99.90;;;;;;4934173;29;20047;-80
2023/10/24 06:15:51;;;;;;;76.18;37.70;;;10.80;99.90;;;;;;4898570;29;20048;-80
2023/10/24 06:18:18;;;;;;;32.95;29.52;;;10.80;99.90;;;;;;4915598;29;20067;-80
2023/10/24 06:20:43;;;;;;;31.75;28.33;;;10.90;99.90;;;;;;4930657;29;20245;-80
2023/10/24 06:23:10;;;;;;;72.88;37.75;;;10.80;99.90;;;;;;4903185;29;20493;-80
2023/10/24 06:25:40;;;;;;;32.10;28.70;;;10.80;99.90;;;;;;4906866;29;20043;-81
2023/10/24 06:28:06;;;;;;;25.35;22.92;;;10.80;99.90;;;;;;4889798;29;20043;-79
2023/10/24 06:30:32;;;;;;;72.47;37.00;;;10.80;99.90;;;;;;4924131;29;20175;-83
2023/10/24 06:32:58;;;;;;;33.38;28.73;;;10.80;99.90;;;;;;4916324;29;20044;-83
2023/10/24 06:35:23;;;;;;;30.55;25.92;;;10.80;99.90;;;;;;4915337;29;20035;-83
2023/10/24 06:37:49;;;;;;;35.70;25.98;;;10.80;99.90;;;;;;4907913;29;20036;-82
2023/10/24 06:40:15;;;;;;;37.42;28.40;;;10.80;99.90;;;;;;4902287;29;20028;-83
2023/10/24 06:42:40;;;;;;;68.68;33.08;;;10.80;99.90;;;;;;4907637;29;20572;-84
2023/10/24 06:45:06;;;;;;;31.13;26.30;;;10.80;99.90;;;;;;4898975;29;20494;-83
2023/10/24 06:47:32;;;;;;;30.25;26.55;;;10.80;99.90;;;;;;4914907;29;20072;-82
2023/10/24 06:49:58;;;;;;;27.15;23.00;;;10.80;99.90;;;;;;4925830;29;20122;-83
2023/10/24 06:52:23;;;;;;;30.02;24.90;;;10.80;99.90;;;;;;4908739;29;20486;-80
2023/10/24 06:54:49;;;;;;;43.80;26.42;;;10.80;99.90;;;;;;4925652;29;20044;-82
2023/10/24 06:57:15;;;;;;;60.08;31.05;;;10.80;99.90;;;;;;4933980;29;20040;-82
2023/10/24 06:59:40;;;;;;;25.63;22.65;;;10.80;99.90;;;;;;4899830;29;20044;-81
2023/10/24 07:02:06;;;;;;;36.88;24.60;;;10.70;99.90;;;;;;4916411;29;20047;-80
2023/10/24 07:04:31;;;;;;;25.92;23.13;;;10.80;99.90;;;;;;4922095;29;20047;-83
2023/10/24 07:06:57;;;;;;;40.88;26.83;;;10.70;99.90;;;;;;4898712;29;20051;-81
2023/10/24 07:09:23;;;;;;;36.58;26.83;;;10.70;99.90;;;;;;4914209;29;20040;-80
2023/10/24 07:11:48;;;;;;;32.15;25.08;;;10.70;99.90;;;;;;4914337;29;20048;-81
2023/10/24 07:14:14;;;;;;;48.80;29.85;;;10.70;99.90;;;;;;4905962;29;20104;-80
2023/10/24 07:16:40;;;;;;;28.27;23.08;;;10.70;99.90;;;;;;4913162;29;20076;-81
2023/10/24 07:19:05;;;;;;;33.60;26.02;;;10.70;99.90;;;;;;4898428;29;20087;-81
2023/10/24 07:21:31;;;;;;;35.38;26.77;;;10.70;99.90;;;;;;4930034;29;20099;-80
2023/10/24 07:23:58;;;;;;;54.30;30.42;;;10.70;99.90;;;;;;4908900;29;20041;-81
2023/10/24 07:26:23;;;;;;;27.55;23.13;;;10.70;99.90;;;;;;4895946;29;20412;-80
2023/10/24 07:28:49;;;;;;;32.00;25.90;;;10.80;99.90;;;;;;4914067;29;20131;-82
2023/10/24 07:31:14;;;;;;;73.40;33.42;;;10.80;99.90;;;;;;4916715;29;20040;-81
2023/10/24 07:33:41;;;;;;;75.75;34.28;;;10.80;99.90;;;;;;4914187;29;20044;-81
2023/10/24 07:36:07;;;;;;;42.03;28.92;;;10.80;99.90;;;;;;4913046;29;20078;-81
2023/10/24 07:38:33;;;;;;;36.42;27.33;;;10.80;99.90;;;;;;4910827;29;20502;-81
2023/10/24 07:41:00;;;;;;;33.88;25.88;;;10.80;99.90;;;;;;4937806;29;20036;-80
2023/10/24 07:43:25;;;;;;;54.58;30.58;;;10.80;99.90;;;;;;4898229;29;20078;-82
2023/10/24 07:45:53;;;;;;;71.45;34.67;;;10.80;99.90;;;;;;4897041;29;20468;-81
2023/10/24 07:48:19;;;;;;;31.77;26.95;;;10.80;99.90;;;;;;4920992;29;20082;-83
2023/10/24 07:50:50;;;;;;;30.48;24.42;;;10.80;99.90;;;;;;4925479;29;20044;-83
2023/10/24 07:53:16;;;;;;;66.72;34.45;;;10.80;99.90;;;;;;4918352;29;20088;-81
2023/10/24 07:55:41;;;;;;;33.95;27.10;;;10.80;99.90;;;;;;4937702;29;20071;-81
2023/10/24 07:58:08;;;;;;;25.55;22.92;;;10.80;99.90;;;;;;4921828;29;20044;-80
2023/10/24 08:00:34;;;;;;;34.55;26.65;;;10.80;99.90;;;;;;4909185;29;20090;-80
2023/10/24 08:03:00;;;;;;;31.02;26.08;;;10.80;99.90;;;;;;4936248;29;20035;-80
2023/10/24 08:05:26;;;;;;;32.88;26.17;;;10.80;99.90;;;;;;4924462;29;20501;-80
2023/10/24 08:07:51;;;;;;;34.05;26.30;;;10.80;99.90;;;;;;4924586;29;20469;-80
2023/10/24 08:10:17;;;;;;;58.28;33.45;;;10.80;99.90;;;;;;4924735;29;20051;-80
2023/10/24 08:12:43;;;;;;;35.28;27.08;;;10.80;99.90;;;;;;4928061;29;20071;-80
2023/10/24 08:15:09;;;;;;;39.38;28.80;;;10.90;99.90;;;;;;4919430;29;20035;-80
2023/10/24 08:17:34;;;;;;;52.92;31.85;;;10.90;99.90;;;;;;4922735;29;20050;-79
2023/10/24 08:20:00;;;;;;;48.65;32.40;;;10.80;99.90;;;;;;4909352;29;20032;-80
2023/10/24 08:22:26;;;;;;;31.10;26.90;;;10.90;99.90;;;;;;4925594;29;20076;-79
2023/10/24 08:24:51;;;;;;;54.03;33.17;;;10.90;99.90;;;;;;4923850;29;20040;-79
2023/10/24 08:27:17;;;;;;;33.95;26.80;;;10.90;99.90;;;;;;4931415;29;20130;-83
2023/10/24 08:29:42;;;;;;;33.30;26.05;;;10.90;99.90;;;;;;4911917;29;20072;-81
2023/10/24 08:32:08;;;;;;;46.67;29.63;;;10.90;99.90;;;;;;4913913;29;20491;-80
2023/10/24 08:34:36;;;;;;;37.63;27.40;;;11.00;99.90;;;;;;4917151;29;20099;-80
2023/10/24 08:37:03;;;;;;;33.83;27.33;;;11.00;99.90;;;;;;4928144;29;20040;-80
2023/10/24 08:39:29;;;;;;;26.70;23.83;;;11.00;99.90;;;;;;4918911;29;20044;-80
2023/10/24 08:41:59;;;;;;;88.88;33.63;;;11.10;99.90;;;;;;4925038;29;20119;-80
2023/10/24 08:44:26;;;;;;;26.02;23.08;;;11.10;99.90;;;;;;4916529;29;20146;-80
2023/10/24 08:46:53;;;;;;;37.90;26.08;;;11.10;99.90;;;;;;4916718;29;20048;-81
2023/10/24 08:49:19;;;;;;;24.65;21.95;;;11.20;99.90;;;;;;4917034;29;20086;-80
2023/10/24 08:51:45;;;;;;;25.60;22.17;;;11.20;99.90;;;;;;4916742;29;20076;-80
2023/10/24 08:54:11;;;;;;;22.90;20.42;;;11.20;99.90;;;;;;4916985;29;20402;-80
2023/10/24 08:56:38;;;;;;;27.38;23.65;;;11.20;99.90;;;;;;4916203;29;20043;-80
2023/10/24 08:59:09;;;;;;;27.60;24.27;;;11.20;99.90;;;;;;4916688;29;20062;-80
2023/10/24 09:01:39;;;;;;;26.15;23.08;;;11.20;99.90;;;;;;4916749;29;20074;-80
2023/10/24 09:04:06;;;;;;;30.52;24.88;;;11.10;99.90;;;;;;4917317;29;20076;-80
2023/10/24 09:06:36;;;;;;;34.60;25.88;;;11.10;99.90;;;;;;4900786;29;20158;-79
2023/10/24 09:09:02;;;;;;;24.35;21.85;;;11.10;99.90;;;;;;4916181;29;20044;-80
2023/10/24 09:11:56;;;;;;;34.95;25.05;;;11.10;99.90;;;;;;4915995;29;20040;-79
2023/10/24 09:14:27;;;;;;;25.52;22.70;;;11.10;99.90;;;;;;4916578;29;20048;-80
2023/10/24 09:17:05;;;;;;;24.92;21.35;;;11.10;99.90;;;;;;4899890;29;20036;-79
2023/10/24 09:19:32;;;;;;;24.27;21.67;;;11.00;99.90;;;;;;4931714;29;20122;-78
2023/10/24 09:21:59;;;;;;;21.10;19.00;;;11.10;99.90;;;;;;4916164;29;20138;-79
2023/10/24 09:24:25;;;;;;;20.35;18.38;;;11.00;99.90;;;;;;4900307;29;20534;-79
2023/10/24 09:26:56;;;;;;;25.85;22.42;;;11.00;99.90;;;;;;4915030;29;20051;-78
2023/10/24 09:29:24;;;;;;;18.80;17.15;;;11.00;99.90;;;;;;4906063;29;20048;-78
2023/10/24 09:31:50;;;;;;;24.60;20.95;;;11.00;99.90;;;;;;4906497;29;20036;-79
2023/10/24 09:34:17;;;;;;;24.38;21.67;;;11.10;99.90;;;;;;4915865;29;20052;-79
2023/10/24 09:36:44;;;;;;;20.98;19.00;;;11.10;99.90;;;;;;4899835;29;20039;-79
2023/10/24 09:39:10;;;;;;;24.95;21.50;;;11.10;99.90;;;;;;4915937;29;20044;-79
2023/10/24 09:41:41;;;;;;;24.63;21.73;;;11.10;99.90;;;;;;4900581;29;20075;-81
2023/10/24 09:44:08;;;;;;;23.13;20.73;;;11.00;99.90;;;;;;4907229;29;20517;-79
2023/10/24 09:46:35;;;;;;;20.42;18.63;;;11.00;99.90;;;;;;4915204;29;20046;-79
2023/10/24 09:49:02;;;;;;;20.58;18.48;;;11.00;99.90;;;;;;4915294;29;20051;-78
2023/10/24 09:51:28;;;;;;;19.15;17.30;;;11.00;99.90;;;;;;4899731;29;20439;-82
2023/10/24 09:53:54;;;;;;;20.17;18.27;;;11.00;99.90;;;;;;4915385;29;20048;-80
2023/10/24 09:56:21;;;;;;;23.70;20.92;;;11.00;99.90;;;;;;4930130;29;20044;-80
2023/10/24 09:58:46;;;;;;;25.55;22.85;;;11.10;99.90;;;;;;4915147;29;20052;-80
2023/10/24 10:01:12;;;;;;;26.95;24.10;;;11.10;99.90;;;;;;4914698;29;20537;-78
2023/10/24 10:03:38;;;;;;;19.45;17.65;;;11.20;99.90;;;;;;4913327;29;20100;-79
2023/10/24 10:06:06;;;;;;;24.40;21.70;;;11.30;99.90;;;;;;4919491;29;20050;-79
2023/10/24 10:08:37;;;;;;;27.35;24.50;;;11.40;99.90;;;;;;4900319;29;20044;-78
2023/10/24 10:11:06;;;;;;;25.52;22.98;;;11.60;99.90;;;;;;4925996;29;20043;-77
2023/10/24 10:13:38;;;;;;;20.52;18.73;;;11.70;99.90;;;;;;4924596;29;20055;-80
2023/10/24 10:17:01;;;;;;;23.47;21.30;;;11.80;99.90;;;;;;4906201;29;20110;-79
2023/10/24 10:19:47;;;;;;;26.15;23.52;;;12.00;99.90;;;;;;4842780;29;20091;-78
2023/10/24 10:22:31;;;;;;;23.23;21.08;;;12.10;99.90;;;;;;4860755;29;20051;-78
2023/10/24 10:25:27;;;;;;;23.52;21.33;;;12.20;99.90;;;;;;4911531;29;20055;-80
2023/10/24 10:28:31;;;;;;;26.30;23.70;;;12.20;99.90;;;;;;4912106;29;20537;-78
2023/10/24 10:49:47;;;;;;;21.92;19.98;;;12.80;99.90;;;;;;4886982;29;20045;-77
2023/10/24 10:52:51;;;;;;;21.58;19.42;;;12.80;99.90;;;;;;4862439;29;20093;-76
2023/10/24 10:55:56;;;;;;;20.73;18.80;;;12.80;99.90;;;;;;4840123;29;20060;-76
2023/10/24 10:59:41;;;;;;;18.48;16.75;;;13.00;99.90;;;;;;4849639;29;20041;-76
2023/10/24 11:03:01;;;;;;;23.15;20.98;;;13.00;99.90;;;;;;4918211;23;20539;-79
2023/10/24 11:05:39;;;;;;;21.65;19.85;;;13.00;99.90;;;;;;4917442;29;20472;-78
2023/10/24 11:08:09;;;;;;;22.77;20.75;;;13.00;99.90;;;;;;4882434;29;20499;-78
2023/10/24 11:10:54;;;;;;;24.25;21.92;;;13.00;99.90;;;;;;4900318;29;20040;-79
2023/10/24 11:13:42;;;;;;;22.63;20.60;;;13.10;99.90;;;;;;4923826;29;20107;-78
2023/10/24 11:16:10;;;;;;;18.10;16.63;;;13.10;99.90;;;;;;4876038;29;20044;-78
2023/10/24 11:18:36;;;;;;;18.30;16.67;;;13.10;99.90;;;;;;4868066;29;20040;-78
2023/10/24 11:21:04;;;;;;;19.65;17.98;;;13.10;99.90;;;;;;4890138;29;20552;-78
2023/10/24 11:23:31;;;;;;;19.08;17.40;;;13.10;99.90;;;;;;4894800;29;20087;-78
2023/10/24 11:25:58;;;;;;;18.52;16.90;;;13.00;99.90;;;;;;4882234;29;20092;-80
2023/10/24 11:28:27;;;;;;;19.83;18.10;;;13.00;99.90;;;;;;4890852;29;20154;-78
2023/10/24 11:30:54;;;;;;;18.05;16.65;;;13.00;99.90;;;;;;4892723;29;20041;-79
2023/10/24 11:33:20;;;;;;;17.73;16.23;;;12.90;99.90;;;;;;4882855;29;20395;-79
2023/10/24 11:35:46;;;;;;;18.58;16.95;;;12.90;99.90;;;;;;4916936;29;20036;-79
2023/10/24 11:38:14;;;;;;;20.10;18.20;;;12.90;99.90;;;;;;4882621;29;20133;-80
2023/10/24 11:40:40;;;;;;;19.40;17.75;;;13.00;99.90;;;;;;4922670;29;20068;-79
2023/10/24 11:43:07;;;;;;;18.13;16.60;;;13.00;99.90;;;;;;4895793;29;20037;-80
2023/10/24 11:45:36;;;;;;;22.38;20.27;;;13.00;99.90;;;;;;4867714;29;20056;-79
2023/10/24 11:48:01;;;;;;;19.95;18.30;;;13.10;99.90;;;;;;4867653;29;20047;-78
2023/10/24 11:50:38;;;;;;;18.65;17.05;;;13.20;99.90;;;;;;4898321;29;20151;-78
2023/10/24 11:53:03;;;;;;;17.50;16.00;;;13.30;99.90;;;;;;4895888;29;20554;-78
2023/10/24 11:55:31;;;;;;;17.08;15.57;;;13.30;99.90;;;;;;4900747;29;20078;-78
2023/10/24 11:57:59;;;;;;;15.95;14.63;;;13.30;99.90;;;;;;4889156;29;20048;-78
2023/10/24 12:00:27;;;;;;;16.10;14.77;;;13.30;99.90;;;;;;4889063;29;20045;-78
2023/10/24 12:02:53;;;;;;;15.05;13.85;;;13.30;99.90;;;;;;4917108;29;20047;-78
2023/10/24 12:05:19;;;;;;;17.08;15.55;;;13.50;99.90;;;;;;4928567;29;20495;-79
2023/10/24 12:07:52;;;;;;;13.63;12.50;;;13.50;99.90;;;;;;4900858;29;20040;-79
2023/10/24 12:10:18;;;;;;;13.85;12.65;;;13.50;99.90;;;;;;4883377;29;20052;-78
2023/10/24 12:12:45;;;;;;;15.50;14.10;;;13.50;99.90;;;;;;4879223;29;20414;-78
2023/10/24 12:15:10;;;;;;;13.80;12.70;;;13.50;99.90;;;;;;4898633;29;20119;-81
2023/10/24 12:17:36;;;;;;;15.20;13.90;;;13.40;99.90;;;;;;4889848;29;20467;-82
2023/10/24 12:20:02;;;;;;;14.32;13.13;;;13.40;99.90;;;;;;4893460;29;20064;-81
2023/10/24 12:22:28;;;;;;;14.02;12.80;;;13.30;99.90;;;;;;4896825;29;20051;-81
2023/10/24 12:24:53;;;;;;;12.95;11.65;;;13.30;99.90;;;;;;4893226;29;20040;-81
2023/10/24 12:27:19;;;;;;;11.20;10.13;;;13.20;99.90;;;;;;4880899;29;20048;-81
2023/10/24 12:29:45;;;;;;;13.45;12.30;;;13.10;99.90;;;;;;4893485;29;20499;-82
2023/10/24 12:32:10;;;;;;;14.80;13.40;;;13.10;99.90;;;;;;4887364;29;20040;-81
2023/10/24 12:34:36;;;;;;;11.13;10.05;;;13.10;99.90;;;;;;4892056;29;20045;-81
2023/10/24 12:37:02;;;;;;;12.43;11.43;;;13.10;99.90;;;;;;4884165;29;20036;-82
2023/10/24 12:39:28;;;;;;;15.75;14.25;;;13.10;99.90;;;;;;4897044;29;20377;-81
2023/10/24 12:41:54;;;;;;;13.32;12.07;;;13.00;99.90;;;;;;4899728;29;20139;-81
2023/10/24 12:44:19;;;;;;;13.32;12.13;;;12.90;99.90;;;;;;4895155;29;20115;-80
2023/10/24 12:46:45;;;;;;;12.27;11.27;;;12.90;99.90;;;;;;4874198;29;20089;-78
2023/10/24 12:49:10;;;;;;;11.50;10.50;;;12.80;99.90;;;;;;4878471;29;20044;-79
2023/10/24 12:51:36;;;;;;;12.40;11.20;;;12.80;99.90;;;;;;4875653;29;20052;-79
2023/10/24 12:54:02;;;;;;;12.93;11.75;;;12.80;99.90;;;;;;4883356;29;20067;-78
2023/10/24 12:56:27;;;;;;;12.07;11.18;;;12.80;99.90;;;;;;4898146;29;20140;-79
2023/10/24 12:58:54;;;;;;;11.77;10.85;;;12.80;99.90;;;;;;4875119;29;20128;-79
2023/10/24 13:01:19;;;;;;;10.38;9.57;;;12.90;99.90;;;;;;4880445;29;20048;-79
2023/10/24 13:03:45;;;;;;;10.88;9.93;;;12.90;99.90;;;;;;4891173;29;20039;-79
2023/10/24 13:06:10;;;;;;;10.80;9.85;;;12.90;99.90;;;;;;4911608;29;20036;-81
2023/10/24 13:08:36;;;;;;;12.40;11.13;;;12.90;99.90;;;;;;4887908;29;20127;-80
2023/10/24 13:11:03;;;;;;;10.32;9.40;;;12.90;99.90;;;;;;4874791;29;20071;-79
2023/10/24 13:13:29;;;;;;;11.75;10.75;;;12.90;99.90;;;;;;4907255;29;20055;-80
2023/10/24 13:15:54;;;;;;;10.00;9.10;;;12.90;99.90;;;;;;4873878;29;20032;-81
2023/10/24 13:18:20;;;;;;;11.07;10.07;;;12.90;99.90;;;;;;4883582;29;20040;-80
2023/10/24 13:20:46;;;;;;;11.10;10.00;;;12.80;99.90;;;;;;4883074;29;20032;-80
2023/10/24 13:23:11;;;;;;;9.38;8.48;;;12.80;99.90;;;;;;4896843;29;20048;-80
2023/10/24 13:25:38;;;;;;;9.20;8.38;;;12.70;99.90;;;;;;4889671;29;20555;-80
2023/10/24 13:28:04;;;;;;;9.07;8.27;;;12.70;99.90;;;;;;4888252;29;20040;-80
2023/10/24 13:30:31;;;;;;;10.38;9.43;;;12.60;99.90;;;;;;4867405;29;20036;-80
2023/10/24 13:32:57;;;;;;;8.45;7.63;;;12.60;99.90;;;;;;4913047;29;20388;-80
2023/10/24 13:35:22;;;;;;;9.05;8.13;;;12.60;99.90;;;;;;4920708;29;20050;-81
2023/10/24 13:37:48;;;;;;;11.18;10.18;;;12.50;99.90;;;;;;4900105;29;20047;-80
2023/10/24 13:40:13;;;;;;;9.15;8.23;;;12.40;99.90;;;;;;4903958;29;20036;-80
2023/10/24 13:42:39;;;;;;;8.07;7.38;;;12.40;99.90;;;;;;4923869;29;20041;-80
2023/10/24 13:45:05;;;;;;;9.13;8.32;;;12.40;99.90;;;;;;4888184;29;20109;-80
2023/10/24 13:47:31;;;;;;;10.45;9.55;;;12.40;99.90;;;;;;4889051;29;20047;-80
2023/10/24 13:49:57;;;;;;;11.43;10.43;;;12.30;99.90;;;;;;4910109;29;20044;-80
2023/10/24 13:52:23;;;;;;;9.38;8.63;;;12.30;99.90;;;;;;4891792;29;20127;-80
2023/10/24 13:54:49;;;;;;;11.23;10.07;;;12.30;99.90;;;;;;4926265;29;20122;-80
2023/10/24 13:57:15;;;;;;;13.50;12.30;;;12.40;99.90;;;;;;4892901;29;20348;-80
2023/10/24 13:59:41;;;;;;;12.95;11.52;;;12.30;99.90;;;;;;4897501;29;20071;-80
2023/10/24 14:02:07;;;;;;;11.52;10.40;;;12.20;99.90;;;;;;4905715;29;20436;-80
2023/10/24 14:04:32;;;;;;;12.90;11.65;;;12.20;99.90;;;;;;4896408;29;20044;-81